Jpo Gemini — A8VF7 — position and weather

sailwx.info

Track history (hours):
 
Tides and Currents Weather Stations Pressure Air Temp Water Temp Dewpoint Dewpoint Depression Visibility Wind Speed Wind Dir Waves Ship Positions

Jpo Gemini

Last reported at 2015-Mar-03 17:26 UTC. Time now 2015-Mar-05 04:14 UTC.
Position N 39°17' W 009°51'.

Length 207 m; draft 6.8 m.

Type: Cargo ship. MMSI: 636091995.

Date/timePositionNaut miles runAvg speedWind from/ knotsBaromVisibWave heightAir tempDewpointWater temp
2015-Mar-03 17:26N 39°17' W 009°51'1112.0
2015-Mar-03 16:32N 39°06' W 009°51'1211.7
2015-Mar-03 15:31N 38°54' W 009°51'1111.6
2015-Mar-03 14:33N 38°43' W 009°51'1313.5
2015-Mar-03 13:33N 38°30' W 009°47'1414.1
2015-Mar-03 12:33N 38°16' W 009°43'1514.8
2015-Mar-03 11:33N 38°02' W 009°39'1514.8
2015-Mar-03 10:33N 37°47' W 009°34'1515.1
2015-Mar-03 09:33N 37°33' W 009°29'1614.3
2015-Mar-03 08:25N 37°17' W 009°23'1314.3
2015-Mar-03 07:32N 37°05' W 009°21'1813.7
2015-Mar-03 06:14N 36°48' W 009°13'834.1
2015-Mar-03 06:00N 36°42' W 009°06'3 6.4 350 / 151025.010.8 0.514.512.818.0
2015-Mar-03 05:29N 36°43' W 009°02'1314.2
2015-Mar-03 04:33N 36°39' W 008°46'1514.6
2015-Mar-03 03:33N 36°35' W 008°29'1515.3
2015-Mar-03 02:33N 36°30' W 008°11'1615.6
2015-Mar-03 01:33N 36°25' W 007°52'1615.7
2015-Mar-03 00:33N 36°21' W 007°34'9615.6
2015-Mar-02 18:22N 35°58' W 005°38'1214.3
2015-Mar-02 17:33N 36°01' W 005°24'4 3.8
2015-Mar-02 16:29N 36°05' W 005°25'0 0.0
2015-Mar-02 15:32N 36°05' W 005°25'0 0.0
2015-Mar-02 14:29N 36°05' W 005°25'0 0.0
2015-Mar-02 13:32N 36°05' W 005°25'0 0.0
2015-Mar-02 12:32N 36°05' W 005°25'0 0.0
2015-Mar-02 11:32N 36°05' W 005°25'0 0.2
2015-Mar-02 10:32N 36°05' W 005°25'0 0.0
2015-Mar-02 09:32N 36°05' W 005°25'0 0.1
2015-Mar-02 08:32N 36°05' W 005°25'0 0.1
2015-Mar-02 07:32N 36°05' W 005°25'0 0.0
2015-Mar-02 06:32N 36°05' W 005°25'0 0.0
2015-Mar-02 05:32N 36°05' W 005°25'0 0.1
2015-Mar-02 04:20N 36°05' W 005°25'0 0.1
2015-Mar-02 03:29N 36°05' W 005°25'0 0.0
2015-Mar-02 02:29N 36°05' W 005°25'0 0.1
2015-Mar-02 01:32N 36°05' W 005°25'0 0.0
2015-Mar-02 00:32N 36°05' W 005°25'0 0.1
2015-Mar-01 23:32N 36°05' W 005°25'0 0.0
2015-Mar-01 22:32N 36°05' W 005°25'0 0.0
2015-Mar-01 21:32N 36°05' W 005°25'0 0.0
2015-Mar-01 20:32N 36°05' W 005°25'0 0.0
2015-Mar-01 19:20N 36°05' W 005°25'0 0.0
2015-Mar-01 18:32N 36°05' W 005°25'0 0.0
2015-Mar-01 17:32N 36°05' W 005°25'0 0.0
2015-Mar-01 16:32N 36°05' W 005°25'0 0.0
2015-Mar-01 15:32N 36°05' W 005°25'0 0.0
2015-Mar-01 14:32N 36°05' W 005°25'0 0.1
2015-Mar-01 13:32N 36°05' W 005°25'0 0.0
2015-Mar-01 12:29N 36°05' W 005°25'0 0.0
2015-Mar-01 11:20N 36°05' W 005°25'0 0.0
2015-Mar-01 10:26N 36°05' W 005°25'0 0.0
2015-Mar-01 09:32N 36°05' W 005°25'0 0.0
2015-Mar-01 08:32N 36°05' W 005°25'0 0.0
2015-Mar-01 07:08N 36°05' W 005°25'0 0.0
2015-Mar-01 06:17N 36°05' W 005°25'0 0.0
2015-Mar-01 05:05N 36°05' W 005°25'0 0.0
2015-Mar-01 04:20N 36°05' W 005°25'0 0.0
2015-Mar-01 03:23N 36°05' W 005°25'0 0.0
2015-Mar-01 02:32N 36°05' W 005°25'0 0.1
2015-Mar-01 01:11N 36°05' W 005°25'2 3.8
2015-Mar-01 00:33N 36°08' W 005°24'2 0.4
2015-Feb-28 18:22N 36°09' W 005°26'0 0.0
2015-Feb-28 17:19N 36°09' W 005°26'0 0.0
2015-Feb-28 08:31N 36°09' W 005°26'0 0.0
2015-Feb-28 07:29N 36°09' W 005°26'3 3.3
2015-Feb-28 06:33N 36°07' W 005°23'4 4.5
2015-Feb-28 05:33N 36°05' W 005°19'8 8.2
2015-Feb-28 04:33N 35°59' W 005°25'2019.0
2015-Feb-28 03:29N 35°53' W 005°49'17017.9
2015-Feb-27 18:00N 34°00' W 008°24'19816.5 030 / 161029.510.8 0.515.512.118.0
2015-Feb-27 06:00N 31°24' W 010°48'112 9.4 030 / 301027.5 5.4 2.015.511.219.0
2015-Feb-26 18:00N 29°54' W 012°06'42 6.9 030 / 301026.010.8 2.516.012.719.0
2015-Feb-26 12:00N 29°18' W 012°30'32 5.3 030 / 321026.0 5.4 2.017.512.520.0
2015-Feb-26 06:00N 28°54' W 012°54'42 7.0 030 / 261026.5 5.4 1.516.011.719.0
2015-Feb-26 00:00N 28°18' W 013°18'45 7.4 040 / 281026.010.8 2.516.012.719.0
2015-Feb-25 18:00N 27°42' W 013°48'53 8.8 020 / 301025.0 5.4 3.017.512.520.0
2015-Feb-25 12:00N 27°00' W 014°24'235 9.8 040 / 321025.0 5.4 2.018.012.120.0
2015-Feb-24 12:00N 23°48' W 016°54'161 8.9 050 / 221025.010.8 3.021.014.722.0
2015-Feb-23 18:00N 21°12' W 017°36'20417.0 360 / 251019.510.8 1.017.013.721.0
2015-Feb-23 06:00N 17°48' W 017°42'18615.5 340 / 271017.510.8 1.018.015.621.0
2015-Feb-22 18:00N 14°42' W 017°48'9616.0 350 / 261014.010.8 1.025.0 7.421.0
2015-Feb-22 12:00N 13°06' W 017°48'8614.3 350 / 181017.0 5.4 3.022.014.022.0
2015-Feb-22 06:00N 11°42' W 017°30'16714.3 340 / 231015.0 5.4 1.018.512.722.0
2015-Feb-21 18:21N 09°34' W 015°41'618.0
2015-Feb-21 18:00N 09°30' W 015°36'   320 / 241011.010.8 0.524.516.929.0
Track history (hours):
 
Tides and Currents Weather Stations Pressure Air Temp Water Temp Dewpoint Dewpoint Depression Visibility Wind Speed Wind Dir Waves Ship Positions

Jpo Gemini

Last reported at 2015-Mar-03 17:26 UTC. Time now 2015-Mar-05 04:14 UTC.
Position N 39°17' W 009°51'.

Length 207 m; draft 6.8 m.

Type: Cargo ship. MMSI: 636091995.

Date/timePositionNaut miles runAvg speedWind from/ knotsBaromVisibWave heightAir tempDewpointWater temp
2015-Mar-03 17:26N 39°17' W 009°51'1112.0
2015-Mar-03 16:32N 39°06' W 009°51'1211.7
2015-Mar-03 15:31N 38°54' W 009°51'1111.6
2015-Mar-03 14:33N 38°43' W 009°51'1313.5
2015-Mar-03 13:33N 38°30' W 009°47'1414.1
2015-Mar-03 12:33N 38°16' W 009°43'1514.8
2015-Mar-03 11:33N 38°02' W 009°39'1514.8
2015-Mar-03 10:33N 37°47' W 009°34'1515.1
2015-Mar-03 09:33N 37°33' W 009°29'1614.3
2015-Mar-03 08:25N 37°17' W 009°23'1314.3
2015-Mar-03 07:32N 37°05' W 009°21'1813.7
2015-Mar-03 06:14N 36°48' W 009°13'834.1
2015-Mar-03 06:00N 36°42' W 009°06'3 6.4 350 / 151025.010.8 0.514.512.818.0
2015-Mar-03 05:29N 36°43' W 009°02'1314.2
2015-Mar-03 04:33N 36°39' W 008°46'1514.6
2015-Mar-03 03:33N 36°35' W 008°29'1515.3
2015-Mar-03 02:33N 36°30' W 008°11'1615.6
2015-Mar-03 01:33N 36°25' W 007°52'1615.7
2015-Mar-03 00:33N 36°21' W 007°34'9615.6
2015-Mar-02 18:22N 35°58' W 005°38'1214.3
2015-Mar-02 17:33N 36°01' W 005°24'4 3.8
2015-Mar-02 16:29N 36°05' W 005°25'0 0.0
2015-Mar-02 15:32N 36°05' W 005°25'0 0.0
2015-Mar-02 14:29N 36°05' W 005°25'0 0.0
2015-Mar-02 13:32N 36°05' W 005°25'0 0.0
2015-Mar-02 12:32N 36°05' W 005°25'0 0.0
2015-Mar-02 11:32N 36°05' W 005°25'0 0.2
2015-Mar-02 10:32N 36°05' W 005°25'0 0.0
2015-Mar-02 09:32N 36°05' W 005°25'0 0.1
2015-Mar-02 08:32N 36°05' W 005°25'0 0.1
2015-Mar-02 07:32N 36°05' W 005°25'0 0.0
2015-Mar-02 06:32N 36°05' W 005°25'0 0.0
2015-Mar-02 05:32N 36°05' W 005°25'0 0.1
2015-Mar-02 04:20N 36°05' W 005°25'0 0.1
2015-Mar-02 03:29N 36°05' W 005°25'0 0.0
2015-Mar-02 02:29N 36°05' W 005°25'0 0.1
2015-Mar-02 01:32N 36°05' W 005°25'0 0.0
2015-Mar-02 00:32N 36°05' W 005°25'0 0.1
2015-Mar-01 23:32N 36°05' W 005°25'0 0.0
2015-Mar-01 22:32N 36°05' W 005°25'0 0.0
2015-Mar-01 21:32N 36°05' W 005°25'0 0.0
2015-Mar-01 20:32N 36°05' W 005°25'0 0.0
2015-Mar-01 19:20N 36°05' W 005°25'0 0.0
2015-Mar-01 18:32N 36°05' W 005°25'0 0.0
2015-Mar-01 17:32N 36°05' W 005°25'0 0.0
2015-Mar-01 16:32N 36°05' W 005°25'0 0.0
2015-Mar-01 15:32N 36°05' W 005°25'0 0.0
2015-Mar-01 14:32N 36°05' W 005°25'0 0.1
2015-Mar-01 13:32N 36°05' W 005°25'0 0.0
2015-Mar-01 12:29N 36°05' W 005°25'0 0.0
2015-Mar-01 11:20N 36°05' W 005°25'0 0.0
2015-Mar-01 10:26N 36°05' W 005°25'0 0.0
2015-Mar-01 09:32N 36°05' W 005°25'0 0.0
2015-Mar-01 08:32N 36°05' W 005°25'0 0.0
2015-Mar-01 07:08N 36°05' W 005°25'0 0.0
2015-Mar-01 06:17N 36°05' W 005°25'0 0.0
2015-Mar-01 05:05N 36°05' W 005°25'0 0.0
2015-Mar-01 04:20N 36°05' W 005°25'0 0.0
2015-Mar-01 03:23N 36°05' W 005°25'0 0.0
2015-Mar-01 02:32N 36°05' W 005°25'0 0.1
2015-Mar-01 01:11N 36°05' W 005°25'2 3.8
2015-Mar-01 00:33N 36°08' W 005°24'2 0.4
2015-Feb-28 18:22N 36°09' W 005°26'0 0.0
2015-Feb-28 17:19N 36°09' W 005°26'0 0.0
2015-Feb-28 08:31N 36°09' W 005°26'0 0.0
2015-Feb-28 07:29N 36°09' W 005°26'3 3.3
2015-Feb-28 06:33N 36°07' W 005°23'4 4.5
2015-Feb-28 05:33N 36°05' W 005°19'8 8.2
2015-Feb-28 04:33N 35°59' W 005°25'2019.0
2015-Feb-28 03:29N 35°53' W 005°49'17017.9
2015-Feb-27 18:00N 34°00' W 008°24'19816.5 030 / 161029.510.8 0.515.512.118.0
2015-Feb-27 06:00N 31°24' W 010°48'112 9.4 030 / 301027.5 5.4 2.015.511.219.0
2015-Feb-26 18:00N 29°54' W 012°06'42 6.9 030 / 301026.010.8 2.516.012.719.0
2015-Feb-26 12:00N 29°18' W 012°30'32 5.3 030 / 321026.0 5.4 2.017.512.520.0
2015-Feb-26 06:00N 28°54' W 012°54'42 7.0 030 / 261026.5 5.4 1.516.011.719.0
2015-Feb-26 00:00N 28°18' W 013°18'45 7.4 040 / 281026.010.8 2.516.012.719.0
2015-Feb-25 18:00N 27°42' W 013°48'53 8.8 020 / 301025.0 5.4 3.017.512.520.0
2015-Feb-25 12:00N 27°00' W 014°24'235 9.8 040 / 321025.0 5.4 2.018.012.120.0
2015-Feb-24 12:00N 23°48' W 016°54'161 8.9 050 / 221025.010.8 3.021.014.722.0
2015-Feb-23 18:00N 21°12' W 017°36'20417.0 360 / 251019.510.8 1.017.013.721.0
2015-Feb-23 06:00N 17°48' W 017°42'18615.5 340 / 271017.510.8 1.018.015.621.0
2015-Feb-22 18:00N 14°42' W 017°48'9616.0 350 / 261014.010.8 1.025.0 7.421.0
2015-Feb-22 12:00N 13°06' W 017°48'8614.3 350 / 181017.0 5.4 3.022.014.022.0
2015-Feb-22 06:00N 11°42' W 017°30'16714.3 340 / 231015.0 5.4 1.018.512.722.0
2015-Feb-21 18:21N 09°34' W 015°41'618.0
2015-Feb-21 18:00N 09°30' W 015°36'   320 / 241011.010.8 0.524.516.929.0

Dump ship's entire track history